createdAt,value
2023-04-16T00:00:34.934Z,36.50
2023-04-16T00:03:02.335Z,42.10
2023-04-16T00:05:29.727Z,41.17
2023-04-16T00:07:57.032Z,36.10
2023-04-16T00:10:24.311Z,41.95
2023-04-16T00:12:51.515Z,47.92
2023-04-16T00:15:18.795Z,47.07
2023-04-16T00:17:46.351Z,36.53
2023-04-16T00:20:13.723Z,45.95
2023-04-16T00:22:40.971Z,34.28
2023-04-16T00:25:08.415Z,33.40
2023-04-16T00:27:35.770Z,39.53
2023-04-16T00:30:03.386Z,38.88
2023-04-16T00:32:31.262Z,39.15
2023-04-16T00:34:58.545Z,42.55
2023-04-16T00:37:25.889Z,43.58
2023-04-16T00:39:53.210Z,43.17
2023-04-16T00:42:20.683Z,33.92
2023-04-16T00:44:47.949Z,33.95
2023-04-16T00:47:15.454Z,45.85
2023-04-16T00:49:42.956Z,34.33
2023-04-16T00:52:12.154Z,39.35
2023-04-16T00:54:40.104Z,32.50
2023-04-16T00:57:07.739Z,36.03
2023-04-16T00:59:35.131Z,36.10
2023-04-16T01:02:02.489Z,35.17
2023-04-16T01:04:31.189Z,38.60
2023-04-16T01:06:59.192Z,39.83
2023-04-16T01:09:26.684Z,44.20
2023-04-16T01:11:53.910Z,29.35
2023-04-16T01:14:21.168Z,38.55
2023-04-16T01:16:48.527Z,39.55
2023-04-16T01:19:15.869Z,37.30
2023-04-16T01:21:43.158Z,37.03
2023-04-16T01:24:10.466Z,42.60
2023-04-16T01:26:37.702Z,38.72
2023-04-16T01:29:04.984Z,31.27
2023-04-16T01:31:33.319Z,35.70
2023-04-16T01:34:20.475Z,33.70
2023-04-16T01:36:47.728Z,37.83
2023-04-16T01:39:16.649Z,34.70
2023-04-16T01:41:43.946Z,36.88
2023-04-16T01:44:11.424Z,37.50
2023-04-16T01:46:39.045Z,42.92
2023-04-16T01:49:07.740Z,38.17
2023-04-16T01:51:35.098Z,33.80
2023-04-16T01:54:03.697Z,28.92
2023-04-16T01:56:31.049Z,32.30
2023-04-16T01:58:58.369Z,31.80
2023-04-16T02:01:29.889Z,26.95
2023-04-16T02:03:58.254Z,30.90
2023-04-16T02:06:26.275Z,37.72
2023-04-16T02:08:53.893Z,30.40
2023-04-16T02:11:21.662Z,30.05
2023-04-16T02:13:50.090Z,27.60
2023-04-16T02:16:18.909Z,28.20
2023-04-16T02:18:56.456Z,21.85
2023-04-16T02:21:24.873Z,25.98
2023-04-16T02:23:52.235Z,26.83
2023-04-16T02:26:26.802Z,32.53
2023-04-16T02:28:57.048Z,22.60
2023-04-16T02:31:29.805Z,25.45
2023-04-16T02:33:58.017Z,23.83
2023-04-16T02:36:25.779Z,33.97
2023-04-16T02:38:55.316Z,25.10
2023-04-16T02:41:23.147Z,17.38
2023-04-16T02:43:50.524Z,31.33
2023-04-16T02:46:17.814Z,20.83
2023-04-16T02:48:45.128Z,22.55
2023-04-16T02:51:13.016Z,27.13
2023-04-16T02:53:40.339Z,20.83
2023-04-16T02:56:07.907Z,23.25
2023-04-16T02:58:35.218Z,23.95
2023-04-16T03:01:02.634Z,19.85
2023-04-16T03:03:30.090Z,18.88
2023-04-16T03:05:57.338Z,17.98
2023-04-16T03:08:24.626Z,20.30
2023-04-16T03:10:52.183Z,22.02
2023-04-16T03:13:19.438Z,22.05
2023-04-16T03:15:50.524Z,23.45
2023-04-16T03:18:18.042Z,19.50
2023-04-16T03:20:45.615Z,22.42
2023-04-16T03:23:12.987Z,29.45
2023-04-16T03:25:40.893Z,29.42
2023-04-16T03:28:09.827Z,20.85
2023-04-16T03:30:38.754Z,21.15
2023-04-16T03:33:07.100Z,17.52
2023-04-16T03:35:34.990Z,25.58
2023-04-16T03:38:03.055Z,19.38
2023-04-16T03:40:30.259Z,26.65
2023-04-16T03:42:59.567Z,13.93
2023-04-16T03:45:28.061Z,19.40
2023-04-16T03:47:55.559Z,20.80
2023-04-16T03:50:25.901Z,20.58
2023-04-16T03:52:53.305Z,23.30
2023-04-16T03:55:20.769Z,26.25
2023-04-16T03:57:48.024Z,23.80
2023-04-16T04:00:16.733Z,19.92
2023-04-16T04:03:14.032Z,16.80
2023-04-16T04:05:42.688Z,23.75
2023-04-16T04:08:11.800Z,20.70
2023-04-16T04:10:39.333Z,22.55
2023-04-16T04:13:08.105Z,22.20
2023-04-16T04:15:36.374Z,16.33
2023-04-16T04:18:03.788Z,23.65
2023-04-16T04:20:31.231Z,22.55
2023-04-16T04:22:59.280Z,26.75
2023-04-16T04:25:27.443Z,23.27
2023-04-16T04:27:55.194Z,24.65
2023-04-16T04:30:22.728Z,19.92
2023-04-16T04:32:50.159Z,19.70
2023-04-16T04:35:17.545Z,23.27
2023-04-16T04:37:44.981Z,24.05
2023-04-16T04:40:16.216Z,23.85
2023-04-16T04:42:44.015Z,20.02
2023-04-16T04:45:11.741Z,21.30
2023-04-16T04:47:39.161Z,20.73
2023-04-16T04:50:07.031Z,18.73
2023-04-16T04:52:34.560Z,16.75
2023-04-16T04:55:02.736Z,15.25
2023-04-16T04:57:30.949Z,18.73
2023-04-16T04:59:58.621Z,17.35
2023-04-16T05:02:33.037Z,16.15
2023-04-16T05:05:00.469Z,17.15
2023-04-16T05:07:27.768Z,17.67
2023-04-16T05:09:55.060Z,21.25
2023-04-16T05:12:22.409Z,20.05
2023-04-16T05:14:49.724Z,16.90
2023-04-16T05:17:17.002Z,12.25
2023-04-16T05:19:44.201Z,12.43
2023-04-16T05:22:11.433Z,11.57
2023-04-16T05:24:39.045Z,13.45
2023-04-16T05:27:06.681Z,15.05
2023-04-16T05:29:33.899Z,18.02
2023-04-16T05:32:02.147Z,16.77
2023-04-16T05:34:29.595Z,16.83
2023-04-16T05:36:56.871Z,16.60
2023-04-16T05:39:24.097Z,18.40
2023-04-16T05:41:51.345Z,17.02
2023-04-16T05:44:18.708Z,17.88
2023-04-16T05:46:46.149Z,15.32
2023-04-16T05:49:13.425Z,8.77
2023-04-16T05:51:40.781Z,12.07
2023-04-16T05:54:08.164Z,18.48
2023-04-16T05:56:35.465Z,17.38
2023-04-16T05:59:03.002Z,14.60
2023-04-16T06:01:30.704Z,19.95
2023-04-16T06:03:58.865Z,11.38
2023-04-16T06:06:27.539Z,14.82
2023-04-16T06:08:54.801Z,13.57
2023-04-16T06:11:22.362Z,16.02
2023-04-16T06:13:49.679Z,18.08
2023-04-16T06:16:17.478Z,18.15
2023-04-16T06:18:44.802Z,16.17
2023-04-16T06:21:12.291Z,10.07
2023-04-16T06:23:39.553Z,15.88
2023-04-16T06:26:06.931Z,17.00
2023-04-16T06:28:34.226Z,14.23
2023-04-16T06:31:01.898Z,14.73
2023-04-16T06:33:29.280Z,12.93
2023-04-16T06:35:56.787Z,17.63
2023-04-16T06:38:24.185Z,10.15
2023-04-16T06:40:51.496Z,14.35
2023-04-16T06:43:18.832Z,18.58
2023-04-16T06:45:47.498Z,15.68
2023-04-16T06:48:14.776Z,19.15
2023-04-16T06:50:42.335Z,23.42
2023-04-16T06:53:09.689Z,19.35
2023-04-16T06:55:36.964Z,28.67
2023-04-16T06:58:04.238Z,19.08
2023-04-16T07:00:31.579Z,22.55
2023-04-16T07:03:01.405Z,22.25
2023-04-16T07:05:28.919Z,18.80
2023-04-16T07:07:59.154Z,18.83
2023-04-16T07:10:26.462Z,24.20
2023-04-16T07:12:53.755Z,20.67
2023-04-16T07:15:21.038Z,25.10
2023-04-16T07:17:48.341Z,27.27
2023-04-16T07:20:16.107Z,21.65
2023-04-16T07:22:43.729Z,21.75
2023-04-16T07:25:11.139Z,23.60
2023-04-16T07:27:38.607Z,14.60
2023-04-16T07:30:06.615Z,21.58
2023-04-16T07:32:33.972Z,27.88
2023-04-16T07:35:01.369Z,23.73
2023-04-16T07:37:28.700Z,15.32
2023-04-16T07:39:57.800Z,18.42
2023-04-16T07:42:25.237Z,15.45
2023-04-16T07:44:52.520Z,18.30
2023-04-16T07:47:20.238Z,19.45
2023-04-16T07:49:47.494Z,12.93
2023-04-16T07:52:14.748Z,25.45
2023-04-16T07:54:42.013Z,21.20
2023-04-16T07:57:09.322Z,18.95
2023-04-16T07:59:36.617Z,15.13
2023-04-16T08:02:05.047Z,21.80
2023-04-16T08:04:32.567Z,14.90
2023-04-16T08:06:59.907Z,20.38
2023-04-16T08:09:29.052Z,18.60
2023-04-16T08:11:56.365Z,12.85
2023-04-16T08:14:23.623Z,13.68
2023-04-16T08:16:51.261Z,18.40
2023-04-16T08:19:18.568Z,20.02
2023-04-16T08:21:45.929Z,17.20
2023-04-16T08:24:13.360Z,18.15
2023-04-16T08:26:40.707Z,19.23
2023-04-16T08:29:08.158Z,18.77
2023-04-16T08:31:35.688Z,20.10
2023-04-16T08:34:03.049Z,19.27
2023-04-16T08:36:31.474Z,19.40
2023-04-16T08:38:58.842Z,21.38
2023-04-16T08:41:28.022Z,23.00
2023-04-16T08:43:57.070Z,21.38
2023-04-16T08:46:29.024Z,17.90
2023-04-16T08:48:59.315Z,15.32
2023-04-16T08:51:30.112Z,19.52
2023-04-16T08:54:04.721Z,15.40
2023-04-16T08:56:36.034Z,17.25
2023-04-16T08:59:06.863Z,21.50
2023-04-16T09:01:34.460Z,16.63
2023-04-16T09:04:03.435Z,19.85
2023-04-16T09:06:31.652Z,16.98
2023-04-16T09:09:00.568Z,15.60
2023-04-16T09:11:28.151Z,19.98
2023-04-16T09:13:55.672Z,21.45
2023-04-16T09:16:25.149Z,17.30
2023-04-16T09:18:52.835Z,14.77
2023-04-16T09:21:23.388Z,23.40
2023-04-16T09:23:53.989Z,21.50
2023-04-16T09:26:22.002Z,16.63
2023-04-16T09:28:51.590Z,18.77
2023-04-16T09:31:20.182Z,19.77
2023-04-16T09:34:16.744Z,20.48
2023-04-16T09:36:44.184Z,16.02
2023-04-16T09:39:22.695Z,16.05
2023-04-16T09:41:54.959Z,20.58
2023-04-16T09:44:38.634Z,18.05
2023-04-16T09:47:07.969Z,18.50
2023-04-16T09:49:38.755Z,15.52
2023-04-16T09:52:14.603Z,19.00
2023-04-16T09:54:49.962Z,19.83
2023-04-16T09:57:24.780Z,17.05
2023-04-16T10:00:01.220Z,21.42
2023-04-16T10:02:29.491Z,14.90
2023-04-16T10:04:57.984Z,19.90
2023-04-16T10:07:29.340Z,17.80
2023-04-16T10:09:58.130Z,16.38
2023-04-16T10:12:25.591Z,17.23
2023-04-16T10:14:52.885Z,15.23
2023-04-16T10:17:21.367Z,15.43
2023-04-16T10:19:49.020Z,16.58
2023-04-16T10:22:17.602Z,18.58
2023-04-16T10:24:46.269Z,15.80
2023-04-16T10:27:13.722Z,22.65
2023-04-16T10:29:41.523Z,22.85
2023-04-16T10:32:09.001Z,23.90
2023-04-16T10:34:36.783Z,19.95
2023-04-16T10:37:04.137Z,19.85
2023-04-16T10:39:31.697Z,15.38
2023-04-16T10:42:10.378Z,17.45
2023-04-16T10:44:37.685Z,17.17
2023-04-16T10:47:12.202Z,25.58
2023-04-16T10:49:40.027Z,14.05
2023-04-16T10:52:12.416Z,26.65
2023-04-16T10:54:41.190Z,19.40
2023-04-16T10:57:18.132Z,14.88
2023-04-16T10:59:46.153Z,19.90
2023-04-16T11:02:19.964Z,13.57
2023-04-16T11:04:49.863Z,16.17
2023-04-16T11:07:19.924Z,25.58
2023-04-16T11:10:12.789Z,19.08
2023-04-16T11:12:41.707Z,17.25
2023-04-16T11:15:13.970Z,17.88
2023-04-16T11:17:52.048Z,19.85
2023-04-16T11:20:21.740Z,22.35
2023-04-16T11:22:50.218Z,17.88
2023-04-16T11:25:31.615Z,27.88
2023-04-16T11:27:59.406Z,16.55
2023-04-16T11:30:34.694Z,19.80
2023-04-16T11:33:05.625Z,18.92
2023-04-16T11:35:32.877Z,22.35
2023-04-16T11:38:00.736Z,20.35
2023-04-16T11:40:31.753Z,15.57
2023-04-16T11:43:17.649Z,20.35
2023-04-16T11:46:07.523Z,18.25
2023-04-16T11:48:54.529Z,15.82
2023-04-16T11:51:23.598Z,17.50
2023-04-16T11:53:55.051Z,14.93
2023-04-16T11:56:34.472Z,19.15
2023-04-16T11:59:11.511Z,21.38
2023-04-16T12:01:40.951Z,15.40
2023-04-16T12:04:09.109Z,11.70
2023-04-16T12:06:36.674Z,24.40
2023-04-16T12:09:25.350Z,22.77
2023-04-16T12:11:52.714Z,16.88
2023-04-16T12:14:20.399Z,21.83
2023-04-16T12:16:47.927Z,15.65
2023-04-16T12:19:15.777Z,22.08
2023-04-16T12:21:45.374Z,20.80
2023-04-16T12:24:15.291Z,13.82
2023-04-16T12:26:45.488Z,16.60
2023-04-16T12:29:17.243Z,18.88
2023-04-16T12:31:44.689Z,19.67
2023-04-16T12:34:12.491Z,18.38
2023-04-16T12:36:39.885Z,18.52
2023-04-16T12:39:07.566Z,21.67
2023-04-16T12:41:37.617Z,21.25
2023-04-16T12:44:12.425Z,22.77
2023-04-16T12:46:41.120Z,18.13
2023-04-16T12:49:10.196Z,19.45
2023-04-16T12:51:38.719Z,20.25
2023-04-16T12:54:09.980Z,19.70
2023-04-16T12:56:37.295Z,17.23
2023-04-16T12:59:05.057Z,14.88
2023-04-16T13:01:32.415Z,23.65
2023-04-16T13:03:59.809Z,18.05
2023-04-16T13:06:27.195Z,18.75
2023-04-16T13:08:54.549Z,15.93
2023-04-16T13:11:21.918Z,22.73
2023-04-16T13:13:49.161Z,15.23
2023-04-16T13:16:16.587Z,25.15
2023-04-16T13:18:44.089Z,15.07
2023-04-16T13:21:11.541Z,16.73
2023-04-16T13:23:38.913Z,17.27
2023-04-16T13:26:06.166Z,19.13
2023-04-16T13:28:33.447Z,16.20
2023-04-16T13:31:03.457Z,15.20
2023-04-16T13:33:32.488Z,17.03
2023-04-16T13:35:59.765Z,17.33
2023-04-16T13:38:27.082Z,16.30
2023-04-16T13:40:54.468Z,17.48
2023-04-16T13:43:22.550Z,20.60
2023-04-16T13:45:49.896Z,22.23
2023-04-16T13:48:18.052Z,19.92
2023-04-16T13:50:45.503Z,20.48
2023-04-16T13:53:12.831Z,17.10
2023-04-16T13:55:40.367Z,11.82
2023-04-16T13:58:07.781Z,16.02
2023-04-16T14:00:35.157Z,21.27
2023-04-16T14:03:02.573Z,17.30
2023-04-16T14:05:29.926Z,20.63
2023-04-16T14:07:57.199Z,20.55
2023-04-16T14:10:24.532Z,18.17
2023-04-16T14:12:52.096Z,22.42
2023-04-16T14:15:19.493Z,22.23
2023-04-16T14:17:47.132Z,15.52
2023-04-16T14:20:14.888Z,16.23
2023-04-16T14:22:44.052Z,21.33
2023-04-16T14:25:11.342Z,18.38
2023-04-16T14:27:38.895Z,22.77
2023-04-16T14:30:07.158Z,19.48
2023-04-16T14:32:34.420Z,18.65
2023-04-16T14:35:01.820Z,15.90
2023-04-16T14:37:29.296Z,19.27
2023-04-16T14:39:56.759Z,16.00
2023-04-16T14:42:24.507Z,18.17
2023-04-16T14:44:52.323Z,17.98
2023-04-16T14:47:19.968Z,19.77
2023-04-16T14:49:47.238Z,16.08
2023-04-16T14:52:14.526Z,20.67
2023-04-16T14:54:41.832Z,19.77
2023-04-16T14:57:09.178Z,23.55
2023-04-16T14:59:37.174Z,23.58
2023-04-16T15:02:04.753Z,18.05
2023-04-16T15:04:32.257Z,20.13
2023-04-16T15:07:00.347Z,18.77
2023-04-16T15:09:27.761Z,16.48
2023-04-16T15:11:55.214Z,20.35
2023-04-16T15:14:22.434Z,17.95
2023-04-16T15:16:50.176Z,19.80
2023-04-16T15:19:17.876Z,20.73
2023-04-16T15:21:47.503Z,19.92
2023-04-16T15:24:15.903Z,19.60
2023-04-16T15:26:43.332Z,16.27
2023-04-16T15:29:10.871Z,20.88
2023-04-16T15:31:38.129Z,18.92
2023-04-16T15:34:05.693Z,17.90
2023-04-16T15:36:33.448Z,18.77
2023-04-16T15:39:00.831Z,22.02
2023-04-16T15:41:30.910Z,20.48
2023-04-16T15:43:58.325Z,21.42
2023-04-16T15:46:26.619Z,14.68
2023-04-16T15:48:54.031Z,20.63
2023-04-16T15:51:21.383Z,16.33
2023-04-16T15:53:50.502Z,20.30
2023-04-16T15:56:17.922Z,16.60
2023-04-16T15:58:45.278Z,17.73
2023-04-16T16:01:12.691Z,17.88
2023-04-16T16:03:40.083Z,16.38
2023-04-16T16:06:09.076Z,15.88
2023-04-16T16:08:38.374Z,15.30
2023-04-16T16:11:05.760Z,18.00
2023-04-16T16:13:32.974Z,15.43
2023-04-16T16:16:00.254Z,16.60
2023-04-16T16:18:27.743Z,16.73
2023-04-16T16:20:58.037Z,15.73
2023-04-16T16:23:26.144Z,16.50
2023-04-16T16:25:53.474Z,20.05
2023-04-16T16:28:20.923Z,19.58
2023-04-16T16:30:48.187Z,18.17
2023-04-16T16:33:15.670Z,17.15
2023-04-16T16:35:42.891Z,16.08
2023-04-16T16:38:10.225Z,20.27
2023-04-16T16:40:38.655Z,17.45
2023-04-16T16:43:06.078Z,20.35
2023-04-16T16:45:33.372Z,15.73
2023-04-16T16:48:00.872Z,18.20
2023-04-16T16:50:28.139Z,17.48
2023-04-16T16:52:55.328Z,16.95
2023-04-16T16:55:22.715Z,17.45
2023-04-16T16:57:50.233Z,16.63
2023-04-16T17:00:20.133Z,15.77
2023-04-16T17:02:48.413Z,13.93
2023-04-16T17:05:15.809Z,16.60
2023-04-16T17:07:43.072Z,16.17
2023-04-16T17:10:19.974Z,12.30
2023-04-16T17:12:51.267Z,17.33
2023-04-16T17:15:21.266Z,14.63
2023-04-16T17:17:49.345Z,17.33
2023-04-16T17:20:16.687Z,12.65
2023-04-16T17:22:44.059Z,15.82
2023-04-16T17:25:11.517Z,17.48
2023-04-16T17:27:41.776Z,18.67
2023-04-16T17:30:09.540Z,15.07
2023-04-16T17:32:37.106Z,14.13
2023-04-16T17:35:05.238Z,15.43
2023-04-16T17:37:32.828Z,16.58
2023-04-16T17:40:00.183Z,13.30
2023-04-16T17:42:27.420Z,17.40
2023-04-16T17:44:54.734Z,15.32
2023-04-16T17:47:22.234Z,16.02
2023-04-16T17:49:53.036Z,12.52
2023-04-16T17:52:21.518Z,17.88
2023-04-16T17:54:49.569Z,16.77
2023-04-16T17:57:16.997Z,9.13
2023-04-16T17:59:44.252Z,14.27
2023-04-16T18:02:11.633Z,18.80
2023-04-16T18:04:39.124Z,13.13
2023-04-16T18:07:06.658Z,15.77
2023-04-16T18:09:33.970Z,15.43
2023-04-16T18:12:01.650Z,12.90
2023-04-16T18:14:29.231Z,12.82
2023-04-16T18:16:56.710Z,15.05
2023-04-16T18:19:23.931Z,12.95
2023-04-16T18:21:51.189Z,13.15
2023-04-16T18:24:18.420Z,15.77
2023-04-16T18:26:47.048Z,13.02
2023-04-16T18:29:14.855Z,12.50
2023-04-16T18:31:42.913Z,20.45
2023-04-16T18:34:10.741Z,19.48
2023-04-16T18:36:37.946Z,12.57
2023-04-16T18:39:05.241Z,12.52
2023-04-16T18:41:33.003Z,12.95
2023-04-16T18:44:00.262Z,12.88
2023-04-16T18:46:27.767Z,14.55
2023-04-16T18:48:55.542Z,18.48
2023-04-16T18:51:22.822Z,13.32
2023-04-16T18:53:50.032Z,16.25
2023-04-16T18:56:17.276Z,13.05
2023-04-16T18:58:44.568Z,14.18
2023-04-16T19:01:13.684Z,17.05
2023-04-16T19:03:41.059Z,16.63
2023-04-16T19:06:08.304Z,18.38
2023-04-16T19:08:35.653Z,17.55
2023-04-16T19:11:02.893Z,24.55
2023-04-16T19:13:30.688Z,14.30
2023-04-16T19:15:59.980Z,16.70
2023-04-16T19:18:27.449Z,14.48
2023-04-16T19:21:01.355Z,18.65
2023-04-16T19:23:29.271Z,20.67
2023-04-16T19:25:57.066Z,20.88
2023-04-16T19:28:25.605Z,22.50
2023-04-16T19:30:57.421Z,18.90
2023-04-16T19:33:24.749Z,19.95
2023-04-16T19:35:52.044Z,20.13
2023-04-16T19:38:19.375Z,17.67
2023-04-16T19:40:48.946Z,19.67
2023-04-16T19:43:16.465Z,16.02
2023-04-16T19:45:45.353Z,20.73
2023-04-16T19:48:13.474Z,16.75
2023-04-16T19:50:42.087Z,17.92
2023-04-16T19:53:10.108Z,18.98
2023-04-16T19:55:40.207Z,15.65
2023-04-16T19:58:08.262Z,16.75
2023-04-16T20:00:37.809Z,16.58
2023-04-16T20:03:05.727Z,16.50
2023-04-16T20:05:33.057Z,17.52
2023-04-16T20:08:00.514Z,19.45
2023-04-16T20:10:27.984Z,17.35
2023-04-16T20:12:55.285Z,19.67
2023-04-16T20:15:22.560Z,16.63
2023-04-16T20:17:50.042Z,15.77
2023-04-16T20:20:17.453Z,18.13
2023-04-16T20:22:44.748Z,18.13
2023-04-16T20:25:14.510Z,15.90
2023-04-16T20:27:41.819Z,16.60
2023-04-16T20:30:09.481Z,12.57
2023-04-16T20:32:36.764Z,19.33
2023-04-16T20:35:05.532Z,14.73
2023-04-16T20:37:38.185Z,15.68
2023-04-16T20:40:09.663Z,14.60
2023-04-16T20:42:37.000Z,17.15
2023-04-16T20:45:05.031Z,16.80
2023-04-16T20:47:34.929Z,16.15
2023-04-16T20:50:03.124Z,17.80
2023-04-16T20:52:30.921Z,14.95
2023-04-16T20:54:58.180Z,16.98
2023-04-16T20:57:28.234Z,13.23
2023-04-16T20:59:55.921Z,15.63
2023-04-16T21:02:24.453Z,17.40
2023-04-16T21:04:52.050Z,17.65
2023-04-16T21:07:19.532Z,19.70
2023-04-16T21:09:46.827Z,18.52
2023-04-16T21:12:14.077Z,14.45
2023-04-16T21:14:41.294Z,21.67
2023-04-16T21:17:08.670Z,19.30
2023-04-16T21:19:36.305Z,16.02
2023-04-16T21:22:03.638Z,22.40
2023-04-16T21:24:32.502Z,17.98
2023-04-16T21:26:59.721Z,18.00
2023-04-16T21:29:27.143Z,18.00
2023-04-16T21:31:55.087Z,18.67
2023-04-16T21:34:22.521Z,19.92
2023-04-16T21:36:49.830Z,20.08
2023-04-16T21:39:19.816Z,22.48
2023-04-16T21:41:47.179Z,22.05
2023-04-16T21:44:15.576Z,19.25
2023-04-16T21:46:42.843Z,21.25
2023-04-16T21:49:10.573Z,20.45
2023-04-16T21:51:39.996Z,21.70
2023-04-16T21:54:07.847Z,23.50
2023-04-16T21:56:35.146Z,19.48
2023-04-16T21:59:02.465Z,19.05
2023-04-16T22:01:29.856Z,21.58
2023-04-16T22:03:57.191Z,20.73
2023-04-16T22:06:24.536Z,22.13
2023-04-16T22:08:53.555Z,22.38
2023-04-16T22:11:20.950Z,22.08
2023-04-16T22:13:48.427Z,23.08
2023-04-16T22:16:15.868Z,27.98
2023-04-16T22:18:43.239Z,25.23
2023-04-16T22:21:10.469Z,25.27
2023-04-16T22:23:37.783Z,20.65
2023-04-16T22:26:05.045Z,22.77
2023-04-16T22:28:32.383Z,26.42
2023-04-16T22:30:59.987Z,17.67
2023-04-16T22:33:30.512Z,22.20
2023-04-16T22:35:59.406Z,21.17
2023-04-16T22:38:26.732Z,21.27
2023-04-16T22:40:54.186Z,18.85
2023-04-16T22:43:21.505Z,21.17
2023-04-16T22:45:48.950Z,19.42
2023-04-16T22:48:16.552Z,17.45
2023-04-16T22:50:51.188Z,18.95
2023-04-16T22:53:18.629Z,19.65
2023-04-16T22:55:46.057Z,17.65
2023-04-16T22:58:13.227Z,18.75
2023-04-16T23:00:40.546Z,22.33
2023-04-16T23:03:08.097Z,21.50
2023-04-16T23:05:35.444Z,18.73
2023-04-16T23:08:02.809Z,17.88
2023-04-16T23:10:30.057Z,18.33
2023-04-16T23:12:57.362Z,15.35
2023-04-16T23:15:24.592Z,19.58
2023-04-16T23:17:52.313Z,18.67
2023-04-16T23:20:19.693Z,15.88
2023-04-16T23:22:47.199Z,20.35
2023-04-16T23:25:14.405Z,21.85
2023-04-16T23:27:41.885Z,18.75
2023-04-16T23:30:09.525Z,25.13
2023-04-16T23:32:36.813Z,18.45
2023-04-16T23:35:04.462Z,24.52
2023-04-16T23:37:31.847Z,19.35
2023-04-16T23:39:59.104Z,21.58
2023-04-16T23:42:26.418Z,18.40
2023-04-16T23:44:53.755Z,21.63
2023-04-16T23:47:21.163Z,19.50
2023-04-16T23:49:48.476Z,19.00
2023-04-16T23:52:15.974Z,22.67
2023-04-16T23:54:43.209Z,23.10
2023-04-16T23:57:10.556Z,21.42
2023-04-16T23:59:37.838Z,21.27
